Wetterdaten: Woche 27.04.26 - 03.05.26 (KW18)
Datum Zeit Temp. 2m rel. Feuchte Luftdruck Regen Wind Richtung Sonne ET UV-Index Solar Taupunkt Böen
27.04.2026 00:00 8,0 °C 69 % 1023,7 hPa 0,0 mm 0,0 km/h (0 Bft) N 0,00 h 0,0 mm 0,0 UV-I 0 W/m² 2,6 °C 0,0 km/h (0 Bft)
27.04.2026 01:00 7,1 °C 73 % 1023,6 hPa 0,0 mm 0,0 km/h (0 Bft) N 0,00 h 0,0 mm 0,0 UV-I 0 W/m² 2,6 °C 0,0 km/h (0 Bft)
27.04.2026 02:00 6,5 °C 77 % 1023,5 hPa 0,0 mm 0,0 km/h (0 Bft) N 0,00 h 0,0 mm 0,0 UV-I 0 W/m² 2,7 °C 0,0 km/h (0 Bft)
27.04.2026 03:00 5,7 °C 79 % 1023,3 hPa 0,0 mm 0,0 km/h (0 Bft) N 0,00 h 0,0 mm 0,0 UV-I 0 W/m² 2,3 °C 0,0 km/h (0 Bft)
27.04.2026 04:00 4,9 °C 81 % 1023,3 hPa 0,0 mm 0,0 km/h (0 Bft) N 0,00 h 0,0 mm 0,0 UV-I 0 W/m² 2,0 °C 0,0 km/h (0 Bft)
27.04.2026 05:00 4,5 °C 83 % 1023,2 hPa 0,0 mm 0,0 km/h (0 Bft) N 0,00 h 0,0 mm 0,0 UV-I 0 W/m² 1,8 °C 0,0 km/h (0 Bft)
27.04.2026 06:00 4,1 °C 84 % 1023,4 hPa 0,0 mm 0,0 km/h (0 Bft) N 0,00 h 0,0 mm 0,0 UV-I 16 W/m² 1,5 °C 0,0 km/h (0 Bft)
27.04.2026 07:00 4,3 °C 85 % 1023,7 hPa 0,0 mm 0,0 km/h (0 Bft) N 0,08 h 0,0 mm 0,0 UV-I 88 W/m² 2,0 °C 0,0 km/h (0 Bft)
27.04.2026 08:00 6,7 °C 81 % 1023,9 hPa 0,0 mm 0,0 km/h (0 Bft) N 1,00 h 0,0 mm 0,0 UV-I 250 W/m² 3,7 °C 0,0 km/h (0 Bft)
27.04.2026 09:00 9,5 °C 73 % 1023,8 hPa 0,0 mm 0,0 km/h (0 Bft) N 1,00 h 0,0 mm 0,0 UV-I 440 W/m² 4,9 °C 0,0 km/h (0 Bft)
27.04.2026 10:00 11,4 °C 69 % 1023,7 hPa 0,0 mm 0,0 km/h (0 Bft) N 0,83 h 0,1 mm 0,0 UV-I 510 W/m² 5,8 °C 0,2 km/h (0 Bft)
27.04.2026 11:00 13,2 °C 59 % 1023,2 hPa 0,0 mm 0,0 km/h (0 Bft) N 1,00 h 0,2 mm 0,0 UV-I 674 W/m² 5,2 °C 0,0 km/h (0 Bft)
27.04.2026 12:00 15,3 °C 49 % 1022,8 hPa 0,0 mm 0,0 km/h (0 Bft) N 1,00 h 0,2 mm 0,0 UV-I 932 W/m² 4,6 °C 0,6 km/h (0 Bft)
27.04.2026 13:00 17,0 °C 39 % 1022,3 hPa 0,0 mm 0,0 km/h (0 Bft) N 1,00 h 0,4 mm 0,0 UV-I 937 W/m² 2,9 °C 0,4 km/h (0 Bft)
27.04.2026 14:00 18,3 °C 35 % 1021,8 hPa 0,0 mm 0,0 km/h (0 Bft) N 1,00 h 0,4 mm 0,0 UV-I 846 W/m² 2,5 °C 0,2 km/h (0 Bft)
27.04.2026 15:00 19,3 °C 36 % 1021,2 hPa 0,0 mm 0,0 km/h (0 Bft) N 1,00 h 0,4 mm 0,0 UV-I 775 W/m² 3,7 °C 0,6 km/h (0 Bft)
27.04.2026 16:00 19,3 °C 36 % 1020,7 hPa 0,0 mm 0,0 km/h (0 Bft) N 1,00 h 0,4 mm 0,0 UV-I 693 W/m² 3,9 °C 0,0 km/h (0 Bft)
27.04.2026 17:00 19,3 °C 34 % 1020,0 hPa 0,0 mm 0,0 km/h (0 Bft) N 1,00 h 0,3 mm 0,0 UV-I 537 W/m² 3,0 °C 0,0 km/h (0 Bft)
27.04.2026 18:00 18,3 °C 35 % 1019,7 hPa 0,0 mm 0,0 km/h (0 Bft) N 0,33 h 0,2 mm 0,0 UV-I 201 W/m² 2,5 °C 0,0 km/h (0 Bft)
27.04.2026 19:00 17,7 °C 36 % 1019,6 hPa 0,0 mm 0,0 km/h (0 Bft) N 1,00 h 0,1 mm 0,0 UV-I 183 W/m² 2,5 °C 0,2 km/h (0 Bft)
27.04.2026 20:00 16,3 °C 40 % 1019,5 hPa 0,0 mm 0,0 km/h (0 Bft) N 0,25 h 0,1 mm 0,0 UV-I 23 W/m² 2,7 °C 0,0 km/h (0 Bft)
27.04.2026 21:00 14,2 °C 50 % 1019,5 hPa 0,0 mm 0,0 km/h (0 Bft) N 0,00 h 0,0 mm 0,0 UV-I 0 W/m² 3,8 °C 0,0 km/h (0 Bft)
27.04.2026 22:00 11,8 °C 58 % 1019,4 hPa 0,0 mm 0,0 km/h (0 Bft) N 0,00 h 0,0 mm 0,0 UV-I 0 W/m² 3,7 °C 0,0 km/h (0 Bft)
27.04.2026 23:00 11,0 °C 61 % 1019,3 hPa 0,0 mm 0,0 km/h (0 Bft) N 0,00 h 0,0 mm 0,0 UV-I 0 W/m² 3,7 °C 0,0 km/h (0 Bft)
28.04.2026 00:00 10,2 °C 66 % 1019,4 hPa 0,0 mm 0,0 km/h (0 Bft) N 0,00 h 0,0 mm 0,0 UV-I 0 W/m² 4,0 °C 0,0 km/h (0 Bft)
28.04.2026 01:00 10,4 °C 64 % 1019,5 hPa 0,0 mm 0,0 km/h (0 Bft) N 0,00 h 0,0 mm 0,0 UV-I 0 W/m² 3,9 °C 0,0 km/h (0 Bft)
28.04.2026 02:00 10,0 °C 67 % 1019,6 hPa 0,0 mm 0,0 km/h (0 Bft) N 0,00 h 0,0 mm 0,0 UV-I 0 W/m² 4,1 °C 0,0 km/h (0 Bft)
28.04.2026 03:00 9,4 °C 69 % 1019,7 hPa 0,0 mm 0,0 km/h (0 Bft) N 0,00 h 0,0 mm 0,0 UV-I 0 W/m² 4,0 °C 0,0 km/h (0 Bft)
28.04.2026 04:00 8,4 °C 72 % 1019,7 hPa 0,0 mm 0,0 km/h (0 Bft) N 0,00 h 0,0 mm 0,0 UV-I 0 W/m² 3,6 °C 0,0 km/h (0 Bft)
28.04.2026 05:00 7,5 °C 76 % 1019,7 hPa 0,0 mm 0,0 km/h (0 Bft) N 0,00 h 0,0 mm 0,0 UV-I 0 W/m² 3,4 °C 0,0 km/h (0 Bft)
28.04.2026 06:00 7,4 °C 78 % 1019,5 hPa 0,0 mm 0,0 km/h (0 Bft) N 0,00 h 0,0 mm 0,0 UV-I 17 W/m² 3,7 °C 0,0 km/h (0 Bft)
28.04.2026 07:00 7,5 °C 79 % 1019,6 hPa 0,0 mm 0,0 km/h (0 Bft) N 0,17 h 0,0 mm 0,0 UV-I 93 W/m² 4,0 °C 0,0 km/h (0 Bft)
28.04.2026 08:00 9,8 °C 72 % 1019,9 hPa 0,0 mm 0,0 km/h (0 Bft) N 1,00 h 0,0 mm 0,0 UV-I 263 W/m² 5,0 °C 0,0 km/h (0 Bft)
28.04.2026 09:00 11,6 °C 63 % 1019,9 hPa 0,0 mm 0,0 km/h (0 Bft) N 1,00 h 0,0 mm 0,0 UV-I 471 W/m² 4,8 °C 0,2 km/h (0 Bft)
28.04.2026 10:00 13,9 °C 55 % 1020,1 hPa 0,0 mm 0,0 km/h (0 Bft) N 0,92 h 0,1 mm 0,0 UV-I 626 W/m² 4,9 °C 0,0 km/h (0 Bft)
28.04.2026 11:00 16,0 °C 46 % 1020,2 hPa 0,0 mm 0,0 km/h (0 Bft) N 1,00 h 0,3 mm 0,0 UV-I 827 W/m² 4,5 °C 0,2 km/h (0 Bft)
28.04.2026 12:00 18,0 °C 41 % 1019,9 hPa 0,0 mm 0,0 km/h (0 Bft) N 1,00 h 0,3 mm 0,0 UV-I 836 W/m² 4,3 °C 0,2 km/h (0 Bft)
28.04.2026 13:00 20,0 °C 33 % 1019,6 hPa 0,0 mm 0,0 km/h (0 Bft) N 1,00 h 0,4 mm 0,0 UV-I 839 W/m² 3,3 °C 0,2 km/h (0 Bft)
28.04.2026 14:00 21,8 °C 28 % 1019,3 hPa 0,0 mm 0,0 km/h (0 Bft) N 1,00 h 0,5 mm 0,0 UV-I 818 W/m² 2,5 °C 0,0 km/h (0 Bft)
28.04.2026 15:00 21,8 °C 28 % 1019,0 hPa 0,0 mm 0,0 km/h (0 Bft) N 1,00 h 0,5 mm 0,0 UV-I 754 W/m² 2,6 °C 0,2 km/h (0 Bft)
28.04.2026 16:00 20,9 °C 33 % 1018,7 hPa 0,0 mm 0,0 km/h (0 Bft) N 1,00 h 0,4 mm 0,0 UV-I 671 W/m² 4,1 °C 0,2 km/h (0 Bft)
28.04.2026 17:00 20,6 °C 33 % 1018,4 hPa 0,0 mm 0,0 km/h (0 Bft) N 1,00 h 0,4 mm 0,0 UV-I 674 W/m² 3,6 °C 0,7 km/h (0 Bft)
28.04.2026 18:00 20,0 °C 33 % 1018,5 hPa 0,0 mm 0,0 km/h (0 Bft) N 1,00 h 0,3 mm 0,0 UV-I 440 W/m² 3,1 °C 0,7 km/h (0 Bft)
28.04.2026 19:00 18,7 °C 36 % 1019,0 hPa 0,0 mm 0,0 km/h (0 Bft) N 1,00 h 0,2 mm 0,0 UV-I 207 W/m² 3,3 °C 0,4 km/h (0 Bft)
28.04.2026 20:00 17,0 °C 41 % 1019,7 hPa 0,0 mm 0,0 km/h (0 Bft) N 0,42 h 0,1 mm 0,0 UV-I 31 W/m² 3,8 °C 0,0 km/h (0 Bft)
28.04.2026 21:00 15,5 °C 44 % 1020,6 hPa 0,0 mm 0,0 km/h (0 Bft) N 0,00 h 0,0 mm 0,0 UV-I 0 W/m² 3,2 °C 0,0 km/h (0 Bft)
28.04.2026 22:00 14,2 °C 47 % 1021,3 hPa 0,0 mm 0,0 km/h (0 Bft) N 0,00 h 0,0 mm 0,0 UV-I 0 W/m² 3,0 °C 0,0 km/h (0 Bft)
28.04.2026 23:00 13,0 °C 50 % 1022,1 hPa 0,0 mm 0,0 km/h (0 Bft) N 0,00 h 0,0 mm 0,0 UV-I 0 W/m² 2,7 °C 0,0 km/h (0 Bft)
29.04.2026 00:00 12,0 °C 50 % 1022,7 hPa 0,0 mm 0,0 km/h (0 Bft) N 0,00 h 0,0 mm 0,0 UV-I 0 W/m² 1,9 °C 0,0 km/h (0 Bft)
29.04.2026 01:00 11,0 °C 51 % 1023,0 hPa 0,0 mm 0,0 km/h (0 Bft) N 0,00 h 0,0 mm 0,0 UV-I 0 W/m² 1,2 °C 0,0 km/h (0 Bft)
29.04.2026 02:00 10,0 °C 51 % 1023,0 hPa 0,0 mm 0,0 km/h (0 Bft) N 0,00 h 0,0 mm 0,0 UV-I 0 W/m² 0,4 °C 0,0 km/h (0 Bft)
29.04.2026 03:00 9,4 °C 51 % 1023,2 hPa 0,0 mm 0,0 km/h (0 Bft) N 0,00 h 0,0 mm 0,0 UV-I 0 W/m² -0,3 °C 0,0 km/h (0 Bft)
29.04.2026 04:00 7,9 °C 62 % 1023,4 hPa 0,0 mm 0,0 km/h (0 Bft) N 0,00 h 0,0 mm 0,0 UV-I 0 W/m² 1,0 °C 0,0 km/h (0 Bft)
29.04.2026 05:00 6,4 °C 66 % 1023,6 hPa 0,0 mm 0,0 km/h (0 Bft) N 0,00 h 0,0 mm 0,0 UV-I 0 W/m² 0,6 °C 0,0 km/h (0 Bft)
29.04.2026 06:00 5,8 °C 69 % 1023,8 hPa 0,0 mm 0,0 km/h (0 Bft) N 0,00 h 0,0 mm 0,0 UV-I 22 W/m² 0,7 °C 0,0 km/h (0 Bft)
29.04.2026 07:00 6,3 °C 70 % 1024,1 hPa 0,0 mm 0,0 km/h (0 Bft) N 0,58 h 0,0 mm 0,0 UV-I 116 W/m² 1,2 °C 0,0 km/h (0 Bft)
29.04.2026 08:00 9,5 °C 55 % 1024,5 hPa 0,0 mm 0,0 km/h (0 Bft) N 1,00 h 0,0 mm 0,0 UV-I 300 W/m² 0,8 °C 0,0 km/h (0 Bft)
29.04.2026 09:00 11,7 °C 46 % 1024,8 hPa 0,0 mm 0,0 km/h (0 Bft) N 1,00 h 0,0 mm 0,0 UV-I 507 W/m² 0,4 °C 0,0 km/h (0 Bft)
29.04.2026 10:00 13,8 °C 37 % 1024,9 hPa 0,0 mm 0,0 km/h (0 Bft) N 0,75 h 0,1 mm 0,0 UV-I 519 W/m² -0,8 °C 0,6 km/h (0 Bft)
29.04.2026 11:00 16,4 °C 30 % 1024,6 hPa 0,0 mm 0,0 km/h (0 Bft) N 1,00 h 0,3 mm 0,0 UV-I 756 W/m² -1,5 °C 0,7 km/h (0 Bft)
29.04.2026 12:00 18,4 °C 26 % 1024,3 hPa 0,0 mm 0,0 km/h (0 Bft) N 1,00 h 0,4 mm 0,0 UV-I 820 W/m² -1,3 °C 0,9 km/h (0 Bft)
29.04.2026 13:00 19,8 °C 24 % 1024,1 hPa 0,0 mm 0,0 km/h (0 Bft) N 1,00 h 0,5 mm 0,0 UV-I 842 W/m² -1,5 °C 0,4 km/h (0 Bft)
29.04.2026 14:00 20,4 °C 23 % 1023,8 hPa 0,0 mm 0,0 km/h (0 Bft) N 1,00 h 0,5 mm 0,0 UV-I 821 W/m² -1,4 °C 0,6 km/h (0 Bft)
29.04.2026 15:00 20,7 °C 22 % 1023,6 hPa 0,0 mm 0,0 km/h (0 Bft) N 1,00 h 0,5 mm 0,0 UV-I 757 W/m² -2,0 °C 0,7 km/h (0 Bft)
29.04.2026 16:00 21,9 °C 19 % 1023,4 hPa 0,0 mm 0,0 km/h (0 Bft) N 1,00 h 0,4 mm 0,0 UV-I 656 W/m² -2,7 °C 0,4 km/h (0 Bft)
29.04.2026 17:00 21,5 °C 20 % 1023,2 hPa 0,0 mm 0,0 km/h (0 Bft) N 1,00 h 0,4 mm 0,0 UV-I 538 W/m² -2,7 °C 0,0 km/h (0 Bft)
29.04.2026 18:00 20,6 °C 22 % 1023,2 hPa 0,0 mm 0,0 km/h (0 Bft) N 1,00 h 0,3 mm 0,0 UV-I 476 W/m² -2,1 °C 0,0 km/h (0 Bft)
29.04.2026 19:00 19,6 °C 25 % 1023,3 hPa 0,0 mm 0,0 km/h (0 Bft) N 1,00 h 0,2 mm 0,0 UV-I 232 W/m² -0,9 °C 0,0 km/h (0 Bft)
29.04.2026 20:00 18,1 °C 27 % 1023,8 hPa 0,0 mm 0,0 km/h (0 Bft) N 0,42 h 0,1 mm 0,0 UV-I 31 W/m² -1,1 °C 0,2 km/h (0 Bft)
29.04.2026 21:00 16,3 °C 31 % 1024,9 hPa 0,0 mm 0,0 km/h (0 Bft) N 0,00 h 0,0 mm 0,0 UV-I 0 W/m² -0,9 °C 0,0 km/h (0 Bft)
29.04.2026 22:00 14,8 °C 32 % 1025,8 hPa 0,0 mm 0,0 km/h (0 Bft) N 0,00 h 0,0 mm 0,0 UV-I 0 W/m² -1,6 °C 0,0 km/h (0 Bft)
29.04.2026 23:00 13,3 °C 37 % 1026,2 hPa 0,0 mm 0,0 km/h (0 Bft) N 0,00 h 0,0 mm 0,0 UV-I 0 W/m² -1,3 °C 0,0 km/h (0 Bft)
30.04.2026 00:00 12,4 °C 38 % 1026,8 hPa 0,0 mm 0,0 km/h (0 Bft) N 0,00 h 0,0 mm 0,0 UV-I 0 W/m² -1,6 °C 0,2 km/h (0 Bft)
30.04.2026 01:00 11,6 °C 41 % 1027,3 hPa 0,0 mm 0,0 km/h (0 Bft) N 0,00 h 0,0 mm 0,0 UV-I 0 W/m² -1,3 °C 0,0 km/h (0 Bft)
30.04.2026 02:00 10,9 °C 41 % 1027,4 hPa 0,0 mm 0,0 km/h (0 Bft) N 0,00 h 0,0 mm 0,0 UV-I 0 W/m² -1,8 °C 0,2 km/h (0 Bft)
30.04.2026 03:00 10,3 °C 41 % 1027,5 hPa 0,0 mm 0,0 km/h (0 Bft) N 0,00 h 0,0 mm 0,0 UV-I 0 W/m² -2,3 °C 0,0 km/h (0 Bft)
30.04.2026 04:00 9,6 °C 42 % 1027,5 hPa 0,0 mm 0,0 km/h (0 Bft) N 0,00 h 0,0 mm 0,0 UV-I 0 W/m² -2,7 °C 0,6 km/h (0 Bft)
30.04.2026 05:00 9,2 °C 42 % 1027,6 hPa 0,0 mm 0,0 km/h (0 Bft) N 0,00 h 0,0 mm 0,0 UV-I 0 W/m² -3,0 °C 0,0 km/h (0 Bft)
30.04.2026 06:00 8,8 °C 42 % 1027,9 hPa 0,0 mm 0,0 km/h (0 Bft) N 0,00 h 0,0 mm 0,0 UV-I 20 W/m² -3,5 °C 0,7 km/h (0 Bft)
30.04.2026 07:00 9,1 °C 40 % 1028,1 hPa 0,0 mm 0,0 km/h (0 Bft) N 0,25 h 0,0 mm 0,0 UV-I 103 W/m² -3,8 °C 1,8 km/h (1 Bft)
30.04.2026 08:00 10,2 °C 36 % 1028,2 hPa 0,0 mm 0,1 km/h (0 Bft) N 1,00 h 0,0 mm 0,0 UV-I 276 W/m² -4,2 °C 3,1 km/h (1 Bft)
30.04.2026 09:00 11,4 °C 33 % 1028,1 hPa 0,0 mm 0,3 km/h (0 Bft) N 1,00 h 0,0 mm 0,0 UV-I 517 W/m² -4,4 °C 9,2 km/h (2 Bft)
30.04.2026 10:00 12,9 °C 30 % 1028,2 hPa 0,0 mm 0,2 km/h (0 Bft) N 1,00 h 0,1 mm 0,0 UV-I 718 W/m² -4,1 °C 6,5 km/h (2 Bft)
30.04.2026 11:00 14,6 °C 27 % 1027,8 hPa 0,0 mm 0,3 km/h (0 Bft) N 1,00 h 0,3 mm 0,0 UV-I 760 W/m² -4,4 °C 8,5 km/h (2 Bft)
30.04.2026 12:00 17,0 °C 23 % 1027,3 hPa 0,0 mm 0,3 km/h (0 Bft) O 1,00 h 0,4 mm 0,0 UV-I 823 W/m² -4,2 °C 7,2 km/h (2 Bft)
30.04.2026 13:00 19,2 °C 20 % 1026,9 hPa 0,0 mm 0,3 km/h (0 Bft) N 1,00 h 0,5 mm 0,0 UV-I 845 W/m² -4,2 °C 6,3 km/h (2 Bft)
30.04.2026 14:00 20,6 °C 19 % 1026,5 hPa 0,0 mm 0,2 km/h (0 Bft) N 1,00 h 0,5 mm 0,0 UV-I 824 W/m² -3,9 °C 6,8 km/h (2 Bft)
30.04.2026 15:00 21,7 °C 17 % 1025,9 hPa 0,0 mm 0,2 km/h (0 Bft) N 1,00 h 0,5 mm 0,0 UV-I 760 W/m² -4,2 °C 5,5 km/h (1 Bft)
30.04.2026 16:00 22,1 °C 16 % 1025,3 hPa 0,0 mm 0,1 km/h (0 Bft) N 1,00 h 0,5 mm 0,0 UV-I 659 W/m² -4,6 °C 3,3 km/h (1 Bft)
30.04.2026 17:00 22,3 °C 16 % 1024,9 hPa 0,0 mm 0,2 km/h (0 Bft) N 1,00 h 0,4 mm 0,0 UV-I 528 W/m² -5,1 °C 6,5 km/h (2 Bft)
30.04.2026 18:00 21,0 °C 17 % 1024,7 hPa 0,0 mm 0,2 km/h (0 Bft) N 1,00 h 0,3 mm 0,0 UV-I 474 W/m² -4,8 °C 6,8 km/h (2 Bft)
30.04.2026 19:00 20,1 °C 20 % 1024,5 hPa 0,0 mm 0,1 km/h (0 Bft) N 1,00 h 0,2 mm 0,0 UV-I 245 W/m² -3,6 °C 2,4 km/h (1 Bft)
30.04.2026 20:00 19,0 °C 24 % 1024,7 hPa 0,0 mm 0,0 km/h (0 Bft) N 0,42 h 0,1 mm 0,0 UV-I 33 W/m² -2,3 °C 0,7 km/h (0 Bft)
30.04.2026 21:00 17,1 °C 30 % 1025,3 hPa 0,0 mm 0,0 km/h (0 Bft) N 0,00 h 0,0 mm 0,0 UV-I 0 W/m² -0,6 °C 0,0 km/h (0 Bft)
30.04.2026 22:00 15,6 °C 32 % 1025,8 hPa 0,0 mm 0,0 km/h (0 Bft) N 0,00 h 0,0 mm 0,0 UV-I 0 W/m² -0,9 °C 0,2 km/h (0 Bft)
30.04.2026 23:00 14,7 °C 35 % 1026,0 hPa 0,0 mm 0,0 km/h (0 Bft) N 0,00 h 0,0 mm 0,0 UV-I 0 W/m² -0,4 °C 0,0 km/h (0 Bft)
01.05.2026 00:00 13,6 °C 40 % 1025,9 hPa 0,0 mm 0,0 km/h (0 Bft) N 0,00 h 0,0 mm 0,0 UV-I 0 W/m² 0,3 °C 0,2 km/h (0 Bft)
01.05.2026 01:00 13,0 °C 44 % 1026,0 hPa 0,0 mm 0,0 km/h (0 Bft) N 0,00 h 0,0 mm 0,0 UV-I 0 W/m² 1,1 °C 0,4 km/h (0 Bft)
01.05.2026 02:00 12,7 °C 46 % 1025,8 hPa 0,0 mm 0,0 km/h (0 Bft) N 0,00 h 0,0 mm 0,0 UV-I 0 W/m² 1,4 °C 0,7 km/h (0 Bft)
01.05.2026 03:00 12,1 °C 49 % 1025,8 hPa 0,0 mm 0,0 km/h (0 Bft) N 0,00 h 0,0 mm 0,0 UV-I 0 W/m² 1,6 °C 1,7 km/h (1 Bft)
01.05.2026 04:00 11,4 °C 51 % 1025,7 hPa 0,0 mm 0,0 km/h (0 Bft) N 0,00 h 0,0 mm 0,0 UV-I 0 W/m² 1,7 °C 2,8 km/h (1 Bft)
01.05.2026 05:00 10,9 °C 52 % 1025,7 hPa 0,0 mm 0,0 km/h (0 Bft) N 0,00 h 0,0 mm 0,0 UV-I 0 W/m² 1,4 °C 0,5 km/h (0 Bft)
01.05.2026 06:00 10,3 °C 54 % 1025,8 hPa 0,0 mm 0,0 km/h (0 Bft) N 0,00 h 0,0 mm 0,0 UV-I 21 W/m² 1,4 °C 0,9 km/h (0 Bft)
01.05.2026 07:00 10,8 °C 52 % 1026,1 hPa 0,0 mm 0,0 km/h (0 Bft) N 0,25 h 0,0 mm 0,0 UV-I 104 W/m² 1,4 °C 2,1 km/h (1 Bft)
01.05.2026 08:00 12,4 °C 47 % 1026,1 hPa 0,0 mm 0,0 km/h (0 Bft) N 1,00 h 0,0 mm 0,0 UV-I 270 W/m² 1,2 °C 2,4 km/h (1 Bft)
01.05.2026 09:00 14,1 °C 40 % 1026,2 hPa 0,0 mm 0,0 km/h (0 Bft) N 1,00 h 0,0 mm 0,0 UV-I 519 W/m² 0,7 °C 5,5 km/h (1 Bft)
01.05.2026 10:00 16,4 °C 32 % 1025,9 hPa 0,0 mm 0,4 km/h (0 Bft) O 1,00 h 0,1 mm 0,0 UV-I 633 W/m² -0,3 °C 10,5 km/h (2 Bft)
01.05.2026 11:00 18,4 °C 28 % 1025,7 hPa 0,0 mm 0,2 km/h (0 Bft) O 1,00 h 0,3 mm 0,0 UV-I 763 W/m² -0,3 °C 9,4 km/h (2 Bft)
01.05.2026 12:00 20,5 °C 27 % 1025,1 hPa 0,0 mm 0,5 km/h (0 Bft) S-SO 1,00 h 0,4 mm 0,0 UV-I 826 W/m² 0,7 °C 12,2 km/h (2 Bft)
01.05.2026 13:00 22,6 °C 25 % 1024,4 hPa 0,0 mm 0,5 km/h (0 Bft) S 1,00 h 0,5 mm 0,0 UV-I 848 W/m² 1,7 °C 12,8 km/h (3 Bft)
01.05.2026 14:00 24,1 °C 23 % 1023,6 hPa 0,0 mm 0,4 km/h (0 Bft) N 1,00 h 0,5 mm 0,0 UV-I 826 W/m² 1,5 °C 9,1 km/h (2 Bft)
01.05.2026 15:00 25,0 °C 21 % 1023,0 hPa 0,0 mm 0,6 km/h (0 Bft) SW 1,00 h 0,5 mm 0,0 UV-I 763 W/m² 1,1 °C 12,4 km/h (3 Bft)
01.05.2026 16:00 24,9 °C 22 % 1022,4 hPa 0,0 mm 0,9 km/h (0 Bft) S-SW 1,00 h 0,5 mm 0,0 UV-I 662 W/m² 2,0 °C 12,4 km/h (3 Bft)
01.05.2026 17:00 24,8 °C 22 % 1021,8 hPa 0,0 mm 1,1 km/h (1 Bft) S 1,00 h 0,4 mm 0,0 UV-I 531 W/m² 1,3 °C 13,1 km/h (3 Bft)
01.05.2026 18:00 24,1 °C 23 % 1021,4 hPa 0,0 mm 0,4 km/h (0 Bft) SW 1,00 h 0,3 mm 0,0 UV-I 491 W/m² 1,9 °C 9,4 km/h (2 Bft)
01.05.2026 19:00 23,1 °C 26 % 1021,2 hPa 0,0 mm 0,1 km/h (0 Bft) N 1,00 h 0,2 mm 0,0 UV-I 248 W/m² 2,5 °C 5,0 km/h (1 Bft)
01.05.2026 20:00 21,5 °C 30 % 1021,3 hPa 0,0 mm 0,0 km/h (0 Bft) N 0,42 h 0,1 mm 0,0 UV-I 35 W/m² 3,1 °C 0,4 km/h (0 Bft)
01.05.2026 21:00 19,3 °C 34 % 1021,4 hPa 0,0 mm 0,0 km/h (0 Bft) N 0,00 h 0,0 mm 0,0 UV-I 0 W/m² 3,1 °C 0,0 km/h (0 Bft)
01.05.2026 22:00 17,5 °C 42 % 1021,5 hPa 0,0 mm 0,0 km/h (0 Bft) N 0,00 h 0,0 mm 0,0 UV-I 0 W/m² 4,2 °C 0,0 km/h (0 Bft)
01.05.2026 23:00 16,1 °C 45 % 1021,5 hPa 0,0 mm 0,0 km/h (0 Bft) N 0,00 h 0,0 mm 0,0 UV-I 0 W/m² 4,2 °C 0,0 km/h (0 Bft)
02.05.2026 00:00 15,6 °C 50 % 1021,4 hPa 0,0 mm 0,0 km/h (0 Bft) N 0,00 h 0,0 mm 0,0 UV-I 0 W/m² 5,0 °C 0,0 km/h (0 Bft)
Min-Datum _ 27.04.26 30.04.26 28.04.26 - 27.04.26 - - - - - 30.04.26 27.04.26
_ Min-Zeit 06:45 16:25 17:35 - 00:00 - - - - - 16:45 00:00
Minimum _ 3,9 °C 15 % 1018,3 hPa - 0,0 km/h (0 Bft) - - - - - -5,7 °C 0,0 km/h (0 Bft)
Max-Datum _ 01.05.26 27.04.26 30.04.26 27.04.26 01.05.26 - 27.04.26 01.05.26 27.04.26 27.04.26 27.04.26 01.05.26
_ Max-Zeit 16:55 07:00 07:35 00:00 17:10 - 07:55 14:05 00:00 13:10 10:55 16:35
Maximum _ 25,4 °C 85 % 1028,3 hPa 0,0 mm 3,4 km/h
S (1 Bft)
- 0,08 h 0,5 mm 0,0 UV-I 1099 W/m² 6,3 °C 31,1 km/h
S-SW (5 Bft)
Durchschnitt _ 14,6 °C 43 % 1023,3 hPa #0,0 mm 0,1 km/h (0 Bft) O #62:05 h #17,526 mm 0,0 UV-I 496 W/m² 1,0 °C 1,7 km/h (1 Bft)



© 1998 - 2026 www.pulheimwetter.de